sensor_id;sensor_type;location;lat;lon;timestamp;P1;durP1;ratioP1;P2;durP2;ratioP2
23720;SDS011;42950;52.134;5.578;2023-04-21T00:00:22;22.95;;;14.93;;
23720;SDS011;42950;52.134;5.578;2023-04-21T00:02:48;22.27;;;15.95;;
23720;SDS011;42950;52.134;5.578;2023-04-21T00:05:14;20.55;;;15.15;;
23720;SDS011;42950;52.134;5.578;2023-04-21T00:07:39;21.67;;;16.20;;
23720;SDS011;42950;52.134;5.578;2023-04-21T00:10:10;19.42;;;14.82;;
23720;SDS011;42950;52.134;5.578;2023-04-21T00:12:36;20.20;;;15.65;;
23720;SDS011;42950;52.134;5.578;2023-04-21T00:15:03;20.27;;;16.13;;
23720;SDS011;42950;52.134;5.578;2023-04-21T00:17:29;19.20;;;15.00;;
23720;SDS011;42950;52.134;5.578;2023-04-21T00:19:55;18.77;;;15.15;;
23720;SDS011;42950;52.134;5.578;2023-04-21T00:22:21;23.13;;;16.90;;
23720;SDS011;42950;52.134;5.578;2023-04-21T00:24:47;20.83;;;16.52;;
23720;SDS011;42950;52.134;5.578;2023-04-21T00:27:13;24.98;;;17.60;;
23720;SDS011;42950;52.134;5.578;2023-04-21T00:29:40;22.20;;;18.05;;
23720;SDS011;42950;52.134;5.578;2023-04-21T00:32:06;24.27;;;17.63;;
23720;SDS011;42950;52.134;5.578;2023-04-21T00:34:33;25.70;;;18.25;;
23720;SDS011;42950;52.134;5.578;2023-04-21T00:37:00;24.08;;;17.45;;
23720;SDS011;42950;52.134;5.578;2023-04-21T00:39:25;24.45;;;18.05;;
23720;SDS011;42950;52.134;5.578;2023-04-21T00:41:51;21.88;;;16.77;;
23720;SDS011;42950;52.134;5.578;2023-04-21T00:44:17;23.45;;;17.58;;
23720;SDS011;42950;52.134;5.578;2023-04-21T00:46:42;21.98;;;16.35;;
23720;SDS011;42950;52.134;5.578;2023-04-21T00:49:08;23.90;;;17.33;;
23720;SDS011;42950;52.134;5.578;2023-04-21T00:51:34;24.88;;;18.63;;
23720;SDS011;42950;52.134;5.578;2023-04-21T00:54:05;25.38;;;19.17;;
23720;SDS011;42950;52.134;5.578;2023-04-21T00:56:32;28.17;;;19.55;;
23720;SDS011;42950;52.134;5.578;2023-04-21T00:58:59;24.23;;;18.60;;
23720;SDS011;42950;52.134;5.578;2023-04-21T01:01:30;24.90;;;18.90;;
23720;SDS011;42950;52.134;5.578;2023-04-21T01:03:59;28.50;;;20.67;;
23720;SDS011;42950;52.134;5.578;2023-04-21T01:06:27;25.25;;;19.92;;
23720;SDS011;42950;52.134;5.578;2023-04-21T01:08:53;29.05;;;20.73;;
23720;SDS011;42950;52.134;5.578;2023-04-21T01:11:19;24.75;;;19.63;;
23720;SDS011;42950;52.134;5.578;2023-04-21T01:13:46;28.05;;;20.58;;
23720;SDS011;42950;52.134;5.578;2023-04-21T01:16:16;27.20;;;21.08;;
23720;SDS011;42950;52.134;5.578;2023-04-21T01:18:45;28.35;;;20.17;;
23720;SDS011;42950;52.134;5.578;2023-04-21T01:21:12;24.48;;;19.23;;
23720;SDS011;42950;52.134;5.578;2023-04-21T01:23:41;26.40;;;19.98;;
23720;SDS011;42950;52.134;5.578;2023-04-21T01:26:07;25.50;;;19.67;;
23720;SDS011;42950;52.134;5.578;2023-04-21T01:28:33;27.77;;;20.20;;
23720;SDS011;42950;52.134;5.578;2023-04-21T01:30:59;27.58;;;20.63;;
23720;SDS011;42950;52.134;5.578;2023-04-21T01:33:25;27.80;;;21.30;;
23720;SDS011;42950;52.134;5.578;2023-04-21T01:35:51;27.15;;;20.67;;
23720;SDS011;42950;52.134;5.578;2023-04-21T01:38:18;30.20;;;22.27;;
23720;SDS011;42950;52.134;5.578;2023-04-21T01:40:46;31.25;;;22.40;;
23720;SDS011;42950;52.134;5.578;2023-04-21T01:43:14;31.55;;;22.85;;
23720;SDS011;42950;52.134;5.578;2023-04-21T01:45:41;32.95;;;23.80;;
23720;SDS011;42950;52.134;5.578;2023-04-21T01:48:07;31.25;;;23.45;;
23720;SDS011;42950;52.134;5.578;2023-04-21T01:50:33;30.42;;;23.80;;
23720;SDS011;42950;52.134;5.578;2023-04-21T01:52:59;31.55;;;23.60;;
23720;SDS011;42950;52.134;5.578;2023-04-21T01:55:25;31.60;;;23.10;;
23720;SDS011;42950;52.134;5.578;2023-04-21T01:57:50;32.88;;;23.60;;
23720;SDS011;42950;52.134;5.578;2023-04-21T02:00:17;29.92;;;22.92;;
23720;SDS011;42950;52.134;5.578;2023-04-21T02:02:45;29.98;;;23.25;;
23720;SDS011;42950;52.134;5.578;2023-04-21T02:05:11;30.85;;;22.70;;
23720;SDS011;42950;52.134;5.578;2023-04-21T02:07:36;27.25;;;21.02;;
23720;SDS011;42950;52.134;5.578;2023-04-21T02:10:02;27.17;;;21.73;;
23720;SDS011;42950;52.134;5.578;2023-04-21T02:12:28;29.27;;;20.38;;
23720;SDS011;42950;52.134;5.578;2023-04-21T02:14:53;28.92;;;21.40;;
23720;SDS011;42950;52.134;5.578;2023-04-21T02:17:25;26.38;;;20.55;;
23720;SDS011;42950;52.134;5.578;2023-04-21T02:19:51;28.95;;;23.05;;
23720;SDS011;42950;52.134;5.578;2023-04-21T02:22:16;27.52;;;20.15;;
23720;SDS011;42950;52.134;5.578;2023-04-21T02:24:43;27.40;;;21.95;;
23720;SDS011;42950;52.134;5.578;2023-04-21T02:27:08;26.35;;;21.13;;
23720;SDS011;42950;52.134;5.578;2023-04-21T02:29:34;25.30;;;19.92;;
23720;SDS011;42950;52.134;5.578;2023-04-21T02:32:00;29.23;;;21.83;;
23720;SDS011;42950;52.134;5.578;2023-04-21T02:34:25;30.58;;;23.75;;
23720;SDS011;42950;52.134;5.578;2023-04-21T02:36:52;30.20;;;21.80;;
23720;SDS011;42950;52.134;5.578;2023-04-21T02:39:18;29.05;;;21.02;;
23720;SDS011;42950;52.134;5.578;2023-04-21T02:41:44;26.60;;;21.35;;
23720;SDS011;42950;52.134;5.578;2023-04-21T02:44:09;28.33;;;22.83;;
23720;SDS011;42950;52.134;5.578;2023-04-21T02:46:38;30.25;;;23.58;;
23720;SDS011;42950;52.134;5.578;2023-04-21T02:49:06;32.85;;;24.42;;
23720;SDS011;42950;52.134;5.578;2023-04-21T02:51:32;32.05;;;23.40;;
23720;SDS011;42950;52.134;5.578;2023-04-21T02:53:58;29.08;;;22.73;;
23720;SDS011;42950;52.134;5.578;2023-04-21T02:56:23;30.60;;;23.35;;
23720;SDS011;42950;52.134;5.578;2023-04-21T02:58:49;30.17;;;23.88;;
23720;SDS011;42950;52.134;5.578;2023-04-21T03:01:15;32.42;;;24.42;;
23720;SDS011;42950;52.134;5.578;2023-04-21T03:03:40;31.98;;;24.17;;
23720;SDS011;42950;52.134;5.578;2023-04-21T03:06:06;30.55;;;22.83;;
23720;SDS011;42950;52.134;5.578;2023-04-21T03:08:31;34.78;;;25.17;;
23720;SDS011;42950;52.134;5.578;2023-04-21T03:10:57;31.33;;;23.17;;
23720;SDS011;42950;52.134;5.578;2023-04-21T03:13:23;31.80;;;23.35;;
23720;SDS011;42950;52.134;5.578;2023-04-21T03:15:49;30.25;;;23.75;;
23720;SDS011;42950;52.134;5.578;2023-04-21T03:18:15;31.65;;;24.90;;
23720;SDS011;42950;52.134;5.578;2023-04-21T03:20:41;36.42;;;25.73;;
23720;SDS011;42950;52.134;5.578;2023-04-21T03:23:07;34.97;;;26.95;;
23720;SDS011;42950;52.134;5.578;2023-04-21T03:25:34;33.58;;;25.90;;
23720;SDS011;42950;52.134;5.578;2023-04-21T03:28:02;32.63;;;24.85;;
23720;SDS011;42950;52.134;5.578;2023-04-21T03:30:27;36.42;;;25.55;;
23720;SDS011;42950;52.134;5.578;2023-04-21T03:32:53;30.73;;;24.85;;
23720;SDS011;42950;52.134;5.578;2023-04-21T03:35:22;31.60;;;24.02;;
23720;SDS011;42950;52.134;5.578;2023-04-21T03:37:48;34.75;;;24.08;;
23720;SDS011;42950;52.134;5.578;2023-04-21T03:40:14;34.22;;;24.30;;
23720;SDS011;42950;52.134;5.578;2023-04-21T03:42:40;31.70;;;23.95;;
23720;SDS011;42950;52.134;5.578;2023-04-21T03:45:06;33.20;;;23.90;;
23720;SDS011;42950;52.134;5.578;2023-04-21T03:47:34;36.35;;;25.25;;
23720;SDS011;42950;52.134;5.578;2023-04-21T03:50:02;32.15;;;24.80;;
23720;SDS011;42950;52.134;5.578;2023-04-21T03:52:30;34.85;;;26.05;;
23720;SDS011;42950;52.134;5.578;2023-04-21T03:54:56;32.67;;;24.27;;
23720;SDS011;42950;52.134;5.578;2023-04-21T03:57:22;33.42;;;25.17;;
23720;SDS011;42950;52.134;5.578;2023-04-21T03:59:47;33.33;;;24.27;;
23720;SDS011;42950;52.134;5.578;2023-04-21T04:02:13;32.60;;;24.70;;
23720;SDS011;42950;52.134;5.578;2023-04-21T04:04:39;33.97;;;25.48;;
23720;SDS011;42950;52.134;5.578;2023-04-21T04:07:05;29.33;;;23.30;;
23720;SDS011;42950;52.134;5.578;2023-04-21T04:09:31;29.38;;;22.88;;
23720;SDS011;42950;52.134;5.578;2023-04-21T04:11:57;28.05;;;21.83;;
23720;SDS011;42950;52.134;5.578;2023-04-21T04:14:23;31.83;;;24.30;;
23720;SDS011;42950;52.134;5.578;2023-04-21T04:16:48;33.42;;;25.48;;
23720;SDS011;42950;52.134;5.578;2023-04-21T04:19:15;32.50;;;23.48;;
23720;SDS011;42950;52.134;5.578;2023-04-21T04:21:41;28.45;;;22.55;;
23720;SDS011;42950;52.134;5.578;2023-04-21T04:24:06;31.50;;;23.55;;
23720;SDS011;42950;52.134;5.578;2023-04-21T04:26:34;31.05;;;23.90;;
23720;SDS011;42950;52.134;5.578;2023-04-21T04:29:02;33.10;;;24.08;;
23720;SDS011;42950;52.134;5.578;2023-04-21T04:31:29;32.20;;;24.83;;
23720;SDS011;42950;52.134;5.578;2023-04-21T04:33:57;27.63;;;22.73;;
23720;SDS011;42950;52.134;5.578;2023-04-21T04:36:23;30.63;;;24.08;;
23720;SDS011;42950;52.134;5.578;2023-04-21T04:38:49;30.73;;;24.67;;
23720;SDS011;42950;52.134;5.578;2023-04-21T04:41:15;29.52;;;24.20;;
23720;SDS011;42950;52.134;5.578;2023-04-21T04:43:41;30.38;;;23.75;;
23720;SDS011;42950;52.134;5.578;2023-04-21T04:46:08;34.22;;;24.98;;
23720;SDS011;42950;52.134;5.578;2023-04-21T04:48:35;34.90;;;25.55;;
23720;SDS011;42950;52.134;5.578;2023-04-21T04:51:01;30.30;;;24.30;;
23720;SDS011;42950;52.134;5.578;2023-04-21T04:53:27;31.70;;;25.20;;
23720;SDS011;42950;52.134;5.578;2023-04-21T04:55:53;31.73;;;25.63;;
23720;SDS011;42950;52.134;5.578;2023-04-21T04:58:19;34.45;;;26.00;;
23720;SDS011;42950;52.134;5.578;2023-04-21T05:00:46;32.75;;;26.00;;
23720;SDS011;42950;52.134;5.578;2023-04-21T05:03:11;34.20;;;27.73;;
23720;SDS011;42950;52.134;5.578;2023-04-21T05:05:37;36.47;;;29.25;;
23720;SDS011;42950;52.134;5.578;2023-04-21T05:08:05;36.50;;;28.50;;
23720;SDS011;42950;52.134;5.578;2023-04-21T05:10:31;35.38;;;28.08;;
23720;SDS011;42950;52.134;5.578;2023-04-21T05:12:59;36.88;;;29.08;;
23720;SDS011;42950;52.134;5.578;2023-04-21T05:15:25;34.83;;;27.63;;
23720;SDS011;42950;52.134;5.578;2023-04-21T05:17:51;38.00;;;29.80;;
23720;SDS011;42950;52.134;5.578;2023-04-21T05:20:17;39.25;;;29.73;;
23720;SDS011;42950;52.134;5.578;2023-04-21T05:22:42;37.13;;;29.90;;
23720;SDS011;42950;52.134;5.578;2023-04-21T05:25:09;37.85;;;29.85;;
23720;SDS011;42950;52.134;5.578;2023-04-21T05:27:36;40.42;;;31.17;;
23720;SDS011;42950;52.134;5.578;2023-04-21T05:30:01;38.38;;;30.23;;
23720;SDS011;42950;52.134;5.578;2023-04-21T05:32:27;39.97;;;31.77;;
23720;SDS011;42950;52.134;5.578;2023-04-21T05:34:53;38.72;;;30.45;;
23720;SDS011;42950;52.134;5.578;2023-04-21T05:37:18;41.30;;;29.17;;
23720;SDS011;42950;52.134;5.578;2023-04-21T05:39:44;40.40;;;30.70;;
23720;SDS011;42950;52.134;5.578;2023-04-21T05:42:10;38.28;;;29.65;;
23720;SDS011;42950;52.134;5.578;2023-04-21T05:44:36;37.83;;;28.70;;
23720;SDS011;42950;52.134;5.578;2023-04-21T05:47:04;37.75;;;29.25;;
23720;SDS011;42950;52.134;5.578;2023-04-21T05:49:30;41.83;;;30.55;;
23720;SDS011;42950;52.134;5.578;2023-04-21T05:51:56;39.50;;;30.58;;
23720;SDS011;42950;52.134;5.578;2023-04-21T05:54:21;35.15;;;29.17;;
23720;SDS011;42950;52.134;5.578;2023-04-21T05:56:47;38.22;;;29.13;;
23720;SDS011;42950;52.134;5.578;2023-04-21T05:59:13;37.83;;;28.73;;
23720;SDS011;42950;52.134;5.578;2023-04-21T06:01:38;38.13;;;29.65;;
23720;SDS011;42950;52.134;5.578;2023-04-21T06:04:04;36.75;;;28.33;;
23720;SDS011;42950;52.134;5.578;2023-04-21T06:06:29;40.10;;;29.13;;
23720;SDS011;42950;52.134;5.578;2023-04-21T06:08:55;38.72;;;30.08;;
23720;SDS011;42950;52.134;5.578;2023-04-21T06:11:21;38.72;;;30.23;;
23720;SDS011;42950;52.134;5.578;2023-04-21T06:13:47;40.03;;;30.88;;
23720;SDS011;42950;52.134;5.578;2023-04-21T06:16:13;38.13;;;30.67;;
23720;SDS011;42950;52.134;5.578;2023-04-21T06:18:39;41.25;;;31.63;;
23720;SDS011;42950;52.134;5.578;2023-04-21T06:21:05;40.42;;;31.73;;
23720;SDS011;42950;52.134;5.578;2023-04-21T06:23:30;44.05;;;31.45;;
23720;SDS011;42950;52.134;5.578;2023-04-21T06:26:02;43.53;;;31.10;;
23720;SDS011;42950;52.134;5.578;2023-04-21T06:28:31;46.20;;;32.25;;
23720;SDS011;42950;52.134;5.578;2023-04-21T06:30:57;41.13;;;31.20;;
23720;SDS011;42950;52.134;5.578;2023-04-21T06:33:24;37.97;;;29.98;;
23720;SDS011;42950;52.134;5.578;2023-04-21T06:35:50;37.92;;;30.40;;
23720;SDS011;42950;52.134;5.578;2023-04-21T06:38:16;41.42;;;31.67;;
23720;SDS011;42950;52.134;5.578;2023-04-21T06:40:42;41.88;;;31.55;;
23720;SDS011;42950;52.134;5.578;2023-04-21T06:43:08;37.78;;;30.25;;
23720;SDS011;42950;52.134;5.578;2023-04-21T06:45:33;38.72;;;30.80;;
23720;SDS011;42950;52.134;5.578;2023-04-21T06:47:59;41.00;;;32.25;;
23720;SDS011;42950;52.134;5.578;2023-04-21T06:50:24;38.42;;;30.67;;
23720;SDS011;42950;52.134;5.578;2023-04-21T06:52:50;37.58;;;29.35;;
23720;SDS011;42950;52.134;5.578;2023-04-21T06:55:16;47.65;;;33.72;;
23720;SDS011;42950;52.134;5.578;2023-04-21T06:57:41;41.13;;;31.60;;
23720;SDS011;42950;52.134;5.578;2023-04-21T07:00:07;40.55;;;32.30;;
23720;SDS011;42950;52.134;5.578;2023-04-21T07:02:33;39.95;;;31.30;;
23720;SDS011;42950;52.134;5.578;2023-04-21T07:04:59;40.50;;;31.95;;
23720;SDS011;42950;52.134;5.578;2023-04-21T07:07:24;40.15;;;31.50;;
23720;SDS011;42950;52.134;5.578;2023-04-21T07:09:50;39.88;;;31.70;;
23720;SDS011;42950;52.134;5.578;2023-04-21T07:12:16;43.50;;;33.95;;
23720;SDS011;42950;52.134;5.578;2023-04-21T07:14:41;44.50;;;32.55;;
23720;SDS011;42950;52.134;5.578;2023-04-21T07:17:07;42.08;;;31.23;;
23720;SDS011;42950;52.134;5.578;2023-04-21T07:19:32;40.50;;;32.47;;
23720;SDS011;42950;52.134;5.578;2023-04-21T07:21:58;37.95;;;31.42;;
23720;SDS011;42950;52.134;5.578;2023-04-21T07:24:24;37.47;;;30.30;;
23720;SDS011;42950;52.134;5.578;2023-04-21T07:26:49;38.65;;;30.23;;
23720;SDS011;42950;52.134;5.578;2023-04-21T07:29:15;38.08;;;29.92;;
23720;SDS011;42950;52.134;5.578;2023-04-21T07:31:40;38.70;;;29.58;;
23720;SDS011;42950;52.134;5.578;2023-04-21T07:34:06;35.97;;;28.83;;
23720;SDS011;42950;52.134;5.578;2023-04-21T07:36:31;34.83;;;29.45;;
23720;SDS011;42950;52.134;5.578;2023-04-21T07:38:57;39.40;;;30.80;;
23720;SDS011;42950;52.134;5.578;2023-04-21T07:41:23;38.08;;;30.08;;
23720;SDS011;42950;52.134;5.578;2023-04-21T07:43:48;37.85;;;31.13;;
23720;SDS011;42950;52.134;5.578;2023-04-21T07:46:14;36.20;;;29.20;;
23720;SDS011;42950;52.134;5.578;2023-04-21T07:48:39;35.53;;;28.98;;
23720;SDS011;42950;52.134;5.578;2023-04-21T07:51:05;34.72;;;28.67;;
23720;SDS011;42950;52.134;5.578;2023-04-21T07:53:31;33.22;;;28.67;;
23720;SDS011;42950;52.134;5.578;2023-04-21T07:55:56;36.85;;;28.35;;
23720;SDS011;42950;52.134;5.578;2023-04-21T07:58:22;33.92;;;27.50;;
23720;SDS011;42950;52.134;5.578;2023-04-21T08:00:48;35.03;;;28.35;;
23720;SDS011;42950;52.134;5.578;2023-04-21T08:03:14;32.40;;;27.75;;
23720;SDS011;42950;52.134;5.578;2023-04-21T08:05:40;33.70;;;27.13;;
23720;SDS011;42950;52.134;5.578;2023-04-21T08:08:06;34.95;;;28.65;;
23720;SDS011;42950;52.134;5.578;2023-04-21T08:10:31;32.20;;;27.15;;
23720;SDS011;42950;52.134;5.578;2023-04-21T08:12:57;33.10;;;26.88;;
23720;SDS011;42950;52.134;5.578;2023-04-21T08:15:23;32.67;;;26.20;;
23720;SDS011;42950;52.134;5.578;2023-04-21T08:17:48;35.97;;;26.42;;
23720;SDS011;42950;52.134;5.578;2023-04-21T08:20:14;32.85;;;26.90;;
23720;SDS011;42950;52.134;5.578;2023-04-21T08:22:40;36.33;;;27.45;;
23720;SDS011;42950;52.134;5.578;2023-04-21T08:25:05;36.25;;;27.48;;
23720;SDS011;42950;52.134;5.578;2023-04-21T08:27:31;34.28;;;26.98;;
23720;SDS011;42950;52.134;5.578;2023-04-21T08:29:57;33.67;;;26.10;;
23720;SDS011;42950;52.134;5.578;2023-04-21T08:32:24;31.02;;;26.30;;
23720;SDS011;42950;52.134;5.578;2023-04-21T08:34:50;36.20;;;27.38;;
23720;SDS011;42950;52.134;5.578;2023-04-21T08:37:20;34.63;;;26.48;;
23720;SDS011;42950;52.134;5.578;2023-04-21T08:39:46;32.10;;;26.00;;
23720;SDS011;42950;52.134;5.578;2023-04-21T08:42:15;33.55;;;27.17;;
23720;SDS011;42950;52.134;5.578;2023-04-21T08:44:41;32.63;;;26.40;;
23720;SDS011;42950;52.134;5.578;2023-04-21T08:47:10;32.75;;;26.58;;
23720;SDS011;42950;52.134;5.578;2023-04-21T08:49:38;28.00;;;25.00;;
23720;SDS011;42950;52.134;5.578;2023-04-21T08:52:05;31.88;;;26.20;;
23720;SDS011;42950;52.134;5.578;2023-04-21T08:54:31;30.75;;;26.35;;
23720;SDS011;42950;52.134;5.578;2023-04-21T08:56:57;31.17;;;26.58;;
23720;SDS011;42950;52.134;5.578;2023-04-21T08:59:24;34.75;;;26.75;;
23720;SDS011;42950;52.134;5.578;2023-04-21T09:04:43;31.80;;;25.58;;
23720;SDS011;42950;52.134;5.578;2023-04-21T09:07:31;32.08;;;25.98;;
23720;SDS011;42950;52.134;5.578;2023-04-21T09:09:58;31.98;;;26.17;;
23720;SDS011;42950;52.134;5.578;2023-04-21T09:12:24;34.58;;;27.40;;
23720;SDS011;42950;52.134;5.578;2023-04-21T09:14:51;32.90;;;26.38;;
23720;SDS011;42950;52.134;5.578;2023-04-21T09:17:19;32.28;;;26.73;;
23720;SDS011;42950;52.134;5.578;2023-04-21T09:19:47;29.38;;;24.80;;
23720;SDS011;42950;52.134;5.578;2023-04-21T09:22:16;33.97;;;25.90;;
23720;SDS011;42950;52.134;5.578;2023-04-21T09:24:47;29.70;;;25.65;;
23720;SDS011;42950;52.134;5.578;2023-04-21T09:27:20;30.25;;;25.40;;
23720;SDS011;42950;52.134;5.578;2023-04-21T09:29:46;28.52;;;25.42;;
23720;SDS011;42950;52.134;5.578;2023-04-21T09:32:15;29.83;;;25.17;;
23720;SDS011;42950;52.134;5.578;2023-04-21T09:34:42;27.83;;;24.73;;
23720;SDS011;42950;52.134;5.578;2023-04-21T09:37:10;28.08;;;24.00;;
23720;SDS011;42950;52.134;5.578;2023-04-21T09:39:37;30.98;;;24.35;;
23720;SDS011;42950;52.134;5.578;2023-04-21T09:42:03;30.00;;;25.10;;
23720;SDS011;42950;52.134;5.578;2023-04-21T09:44:29;28.73;;;24.38;;
23720;SDS011;42950;52.134;5.578;2023-04-21T09:46:59;28.75;;;25.05;;
23720;SDS011;42950;52.134;5.578;2023-04-21T09:49:29;31.92;;;24.83;;
23720;SDS011;42950;52.134;5.578;2023-04-21T09:51:59;29.67;;;24.50;;
23720;SDS011;42950;52.134;5.578;2023-04-21T09:54:29;28.88;;;24.67;;
23720;SDS011;42950;52.134;5.578;2023-04-21T09:57:00;32.55;;;24.73;;
23720;SDS011;42950;52.134;5.578;2023-04-21T10:01:59;28.45;;;23.52;;
23720;SDS011;42950;52.134;5.578;2023-04-21T10:04:25;31.67;;;24.80;;
23720;SDS011;42950;52.134;5.578;2023-04-21T10:06:53;26.40;;;22.92;;
23720;SDS011;42950;52.134;5.578;2023-04-21T10:09:20;26.73;;;22.58;;
23720;SDS011;42950;52.134;5.578;2023-04-21T10:11:50;25.50;;;22.80;;
23720;SDS011;42950;52.134;5.578;2023-04-21T10:14:16;28.92;;;23.88;;
23720;SDS011;42950;52.134;5.578;2023-04-21T10:16:42;31.70;;;24.67;;
23720;SDS011;42950;52.134;5.578;2023-04-21T10:19:24;29.45;;;23.45;;
23720;SDS011;42950;52.134;5.578;2023-04-21T10:21:51;29.40;;;23.45;;
23720;SDS011;42950;52.134;5.578;2023-04-21T10:24:20;26.33;;;22.88;;
23720;SDS011;42950;52.134;5.578;2023-04-21T10:26:46;27.50;;;22.98;;
23720;SDS011;42950;52.134;5.578;2023-04-21T10:29:14;28.25;;;22.83;;
23720;SDS011;42950;52.134;5.578;2023-04-21T10:41:53;28.70;;;21.60;;
23720;SDS011;42950;52.134;5.578;2023-04-21T10:44:20;25.60;;;21.50;;
23720;SDS011;42950;52.134;5.578;2023-04-21T10:46:50;25.58;;;20.70;;
23720;SDS011;42950;52.134;5.578;2023-04-21T10:56:52;24.77;;;21.10;;
23720;SDS011;42950;52.134;5.578;2023-04-21T10:59:19;24.80;;;20.48;;
23720;SDS011;42950;52.134;5.578;2023-04-21T11:01:46;26.08;;;20.98;;
23720;SDS011;42950;52.134;5.578;2023-04-21T11:04:15;24.35;;;21.23;;
23720;SDS011;42950;52.134;5.578;2023-04-21T11:06:41;25.35;;;20.98;;
23720;SDS011;42950;52.134;5.578;2023-04-21T11:09:07;23.80;;;21.23;;
23720;SDS011;42950;52.134;5.578;2023-04-21T11:11:33;26.10;;;20.48;;
23720;SDS011;42950;52.134;5.578;2023-04-21T11:14:00;24.83;;;20.17;;
23720;SDS011;42950;52.134;5.578;2023-04-21T11:16:26;26.70;;;19.92;;
23720;SDS011;42950;52.134;5.578;2023-04-21T11:18:52;25.40;;;19.67;;
23720;SDS011;42950;52.134;5.578;2023-04-21T11:21:20;23.30;;;20.40;;
23720;SDS011;42950;52.134;5.578;2023-04-21T11:23:47;23.50;;;20.15;;
23720;SDS011;42950;52.134;5.578;2023-04-21T11:26:17;25.58;;;20.35;;
23720;SDS011;42950;52.134;5.578;2023-04-21T11:28:53;23.92;;;19.25;;
23720;SDS011;42950;52.134;5.578;2023-04-21T11:31:18;25.90;;;20.60;;
23720;SDS011;42950;52.134;5.578;2023-04-21T11:33:44;23.90;;;20.38;;
23720;SDS011;42950;52.134;5.578;2023-04-21T11:36:09;22.40;;;20.00;;
23720;SDS011;42950;52.134;5.578;2023-04-21T11:38:36;24.25;;;20.48;;
23720;SDS011;42950;52.134;5.578;2023-04-21T11:41:05;24.75;;;20.45;;
23720;SDS011;42950;52.134;5.578;2023-04-21T11:43:32;23.52;;;20.33;;
23720;SDS011;42950;52.134;5.578;2023-04-21T11:46:11;23.85;;;19.92;;
23720;SDS011;42950;52.134;5.578;2023-04-21T11:48:59;22.80;;;19.83;;
23720;SDS011;42950;52.134;5.578;2023-04-21T11:51:30;24.58;;;20.35;;
23720;SDS011;42950;52.134;5.578;2023-04-21T11:54:01;21.65;;;19.25;;
23720;SDS011;42950;52.134;5.578;2023-04-21T11:56:29;21.45;;;18.98;;
23720;SDS011;42950;52.134;5.578;2023-04-21T11:59:04;21.92;;;19.08;;
23720;SDS011;42950;52.134;5.578;2023-04-21T12:01:32;22.48;;;18.77;;
23720;SDS011;42950;52.134;5.578;2023-04-21T12:03:57;21.75;;;19.30;;
23720;SDS011;42950;52.134;5.578;2023-04-21T12:06:24;24.35;;;19.48;;
23720;SDS011;42950;52.134;5.578;2023-04-21T12:08:59;20.27;;;17.70;;
23720;SDS011;42950;52.134;5.578;2023-04-21T12:11:29;19.17;;;17.13;;
23720;SDS011;42950;52.134;5.578;2023-04-21T12:13:58;21.08;;;17.58;;
23720;SDS011;42950;52.134;5.578;2023-04-21T12:16:25;20.05;;;17.42;;
23720;SDS011;42950;52.134;5.578;2023-04-21T12:18:52;21.45;;;17.40;;
23720;SDS011;42950;52.134;5.578;2023-04-21T12:21:18;19.73;;;17.17;;
23720;SDS011;42950;52.134;5.578;2023-04-21T12:23:43;20.65;;;17.25;;
23720;SDS011;42950;52.134;5.578;2023-04-21T12:26:09;23.02;;;18.23;;
23720;SDS011;42950;52.134;5.578;2023-04-21T12:28:36;23.77;;;19.38;;
23720;SDS011;42950;52.134;5.578;2023-04-21T12:31:02;23.40;;;19.55;;
23720;SDS011;42950;52.134;5.578;2023-04-21T12:33:28;23.95;;;19.73;;
23720;SDS011;42950;52.134;5.578;2023-04-21T12:35:55;25.95;;;20.10;;
23720;SDS011;42950;52.134;5.578;2023-04-21T12:38:20;25.23;;;20.52;;
23720;SDS011;42950;52.134;5.578;2023-04-21T12:40:46;26.23;;;20.13;;
23720;SDS011;42950;52.134;5.578;2023-04-21T12:43:12;25.27;;;19.80;;
23720;SDS011;42950;52.134;5.578;2023-04-21T12:45:41;23.25;;;19.83;;
23720;SDS011;42950;52.134;5.578;2023-04-21T12:48:08;25.60;;;20.33;;
23720;SDS011;42950;52.134;5.578;2023-04-21T12:50:33;25.30;;;20.05;;
23720;SDS011;42950;52.134;5.578;2023-04-21T12:52:59;24.50;;;19.95;;
23720;SDS011;42950;52.134;5.578;2023-04-21T12:55:26;25.15;;;19.80;;
23720;SDS011;42950;52.134;5.578;2023-04-21T12:57:51;24.42;;;19.52;;
23720;SDS011;42950;52.134;5.578;2023-04-21T13:00:17;25.58;;;20.20;;
23720;SDS011;42950;52.134;5.578;2023-04-21T13:02:43;22.27;;;19.67;;
23720;SDS011;42950;52.134;5.578;2023-04-21T13:05:09;22.73;;;19.33;;
23720;SDS011;42950;52.134;5.578;2023-04-21T13:07:37;22.58;;;18.67;;
23720;SDS011;42950;52.134;5.578;2023-04-21T13:10:04;24.33;;;19.48;;
23720;SDS011;42950;52.134;5.578;2023-04-21T13:12:31;26.77;;;21.42;;
23720;SDS011;42950;52.134;5.578;2023-04-21T13:14:57;25.58;;;21.20;;
23720;SDS011;42950;52.134;5.578;2023-04-21T13:17:22;26.38;;;20.50;;
23720;SDS011;42950;52.134;5.578;2023-04-21T13:19:48;23.42;;;20.10;;
23720;SDS011;42950;52.134;5.578;2023-04-21T13:22:14;25.65;;;20.35;;
23720;SDS011;42950;52.134;5.578;2023-04-21T13:24:40;26.95;;;20.30;;
23720;SDS011;42950;52.134;5.578;2023-04-21T13:27:06;22.40;;;19.63;;
23720;SDS011;42950;52.134;5.578;2023-04-21T13:29:32;25.98;;;21.17;;
23720;SDS011;42950;52.134;5.578;2023-04-21T13:32:05;24.98;;;20.05;;
23720;SDS011;42950;52.134;5.578;2023-04-21T13:34:32;23.77;;;19.15;;
23720;SDS011;42950;52.134;5.578;2023-04-21T13:37:00;22.52;;;19.30;;
23720;SDS011;42950;52.134;5.578;2023-04-21T13:39:25;24.13;;;18.55;;
23720;SDS011;42950;52.134;5.578;2023-04-21T13:41:51;23.63;;;19.20;;
23720;SDS011;42950;52.134;5.578;2023-04-21T13:44:18;21.27;;;16.73;;
23720;SDS011;42950;52.134;5.578;2023-04-21T13:46:45;19.65;;;17.30;;
23720;SDS011;42950;52.134;5.578;2023-04-21T13:49:11;22.20;;;17.13;;
23720;SDS011;42950;52.134;5.578;2023-04-21T13:51:37;20.77;;;17.23;;
23720;SDS011;42950;52.134;5.578;2023-04-21T13:54:03;23.23;;;17.92;;
23720;SDS011;42950;52.134;5.578;2023-04-21T13:56:29;19.17;;;16.92;;
23720;SDS011;42950;52.134;5.578;2023-04-21T13:58:55;20.60;;;17.05;;
23720;SDS011;42950;52.134;5.578;2023-04-21T14:01:20;21.80;;;17.95;;
23720;SDS011;42950;52.134;5.578;2023-04-21T14:03:46;19.88;;;16.75;;
23720;SDS011;42950;52.134;5.578;2023-04-21T14:06:11;18.98;;;16.38;;
23720;SDS011;42950;52.134;5.578;2023-04-21T14:08:37;18.08;;;15.82;;
23720;SDS011;42950;52.134;5.578;2023-04-21T14:11:03;18.63;;;15.48;;
23720;SDS011;42950;52.134;5.578;2023-04-21T14:13:28;18.92;;;14.25;;
23720;SDS011;42950;52.134;5.578;2023-04-21T14:15:55;16.75;;;14.07;;
23720;SDS011;42950;52.134;5.578;2023-04-21T14:18:21;17.48;;;14.10;;
23720;SDS011;42950;52.134;5.578;2023-04-21T14:20:47;14.13;;;12.30;;
23720;SDS011;42950;52.134;5.578;2023-04-21T14:23:13;20.48;;;13.10;;
23720;SDS011;42950;52.134;5.578;2023-04-21T14:25:39;15.77;;;13.30;;
23720;SDS011;42950;52.134;5.578;2023-04-21T14:28:04;17.75;;;14.07;;
23720;SDS011;42950;52.134;5.578;2023-04-21T14:30:33;17.67;;;14.80;;
23720;SDS011;42950;52.134;5.578;2023-04-21T14:33:02;19.48;;;15.88;;
23720;SDS011;42950;52.134;5.578;2023-04-21T14:35:28;18.33;;;14.50;;
23720;SDS011;42950;52.134;5.578;2023-04-21T14:37:54;18.48;;;15.07;;
23720;SDS011;42950;52.134;5.578;2023-04-21T14:40:21;17.65;;;14.57;;